Aérodrome :
LOGIN :

S'inscrire | Disclaimer

   EN    FR    IT 

 










Légende :    VFR   VFR Marginal   IFR   IFR Intensif   IFR Très Intensif
Visi : 
Plafond : 
>= 8 km
>= 3000ft
5 à 8 km
1000 à 3000 ft
1500m à 5 km
500 à 1000 ft
800 à 1500m
200 à 500 ft
< 800m
< 200 ft
Symboles :   Orages  Brouillard  Fortes neiges  Fortes précipitations  Vent > 20 kt
SIGMETs :   Divers  Orages  Givrage  Turbulence  Onde Orograph.  Cendres Volcan.






- Altitude de l'aérodrome : 17 ft
- Code IATA : MPL


LFMT - Montpellier Méditerranée

DERNIER METAR :
  • 121330Z AUTO 30019KT CAVOK 15/04 Q1005 TEMPO 32015G26KT

METARs EXPIRÉS :
  • 121300Z AUTO 29022KT CAVOK 15/04 Q1006 TEMPO 32015G26KT
  • 121230Z AUTO 29020KT CAVOK 15/04 Q1006 TEMPO 32015G26KT
  • 121200Z AUTO 29017KT CAVOK 15/05 Q1007 TEMPO 32015G26KT
  • 121130Z AUTO 32012KT CAVOK 15/03 Q1007 TEMPO 32015G26KT
  • 121100Z AUTO 31010KT 280V340 CAVOK 15/04 Q1008 NOSIG

TAF TAF LFMT
Valide du 12 à 09h jusqu'au 13 à 09h UTC


120800Z 1209/1309 30012KT CAVOK
TEMPO 1213/1219 32015G26KT
BECMG 1223/1302 27005KT
ATIS : +33 4 67 13 11 70



MET'MAP, la Météo Aéronautique d'un coup d'oeil ! - Copyright ORBIFLY Décembre 2007 - Disclaimer

ORBIFLY MET'MAP TEAM :

Programmation & Développement : Alexandra Zaïnal
Conception & Développement : Baudouin d'Aumeries
Co-Programmation & Développement : Marc-Olivier Méhu
Soutien technique & logistique : Manuel Goepfert

Contact : metmap@orbifly.com




SOURCES & CREDITS :

   NOAA